Cedar City, UT

7:06 PM MDT on August 27, 2015 (GMT -0600)
Cedar City Regional | | Change Station
CLOSE
Current Station
Airport
Location: Cedar City,
Elevation: 5620 ft
Nearby Weather Stations

Elev 5620 ft 37.70 °N, 113.10 °W | Updated 13 minutes ago

Clear
Clear
79 °F
Feels Like 79 °F
N
6
Wind Variable Wind from NE

Today
High -- | Low -- °F
--% Chance of Precip.
Yesterday
High -- | Low -- °F
Precip. -- in
6:58 AM 8:09 PM
Waxing Gibbous, 96% visible
Pressure 30.04 in
Visibility 10.0 miles
Clouds Clear
Dew Point 44 °F
Humidity 29%
Rainfall 0.00 in
Snow Depth Not available.
UV 1 out of 12
Pollen 5.80 out of 12
Air Quality Not available.
Flu Activity Not available.
METAR KCDC 280053Z AUTO 05005KT 10SM CLR 26/07 A3023 RMK AO2 SLP171 T02610067
Pressure 30.04 in
Visibility 10.0 miles
Clouds Clear
Dew Point 44 °F
Humidity 29%
Rainfall 0.00 in
Snow Depth Not available.
UV 1 out of 12
Pollen 5.80 out of 12
Air Quality Not available.
Flu Activity Not available.
METAR KCDC 280053Z AUTO 05005KT 10SM CLR 26/07 A3023 RMK AO2 SLP171 T02610067
Nowcast | as of 5:49 PM MDT on August 27, 2015

Scattered showers and thunderstorms will continue to Blossom into early evening and move southeast over portions of southern and central Utah. The strongest storms at 545 PM were north of Veyo and Snow Canyon State Park...with another cell approaching Lake Powell at Ticaboo. The strongest activity may produce moderate to heavy rain...small hail...strong gusty winds and dangerous lightning.

×

10-Day Weather Forecast

×

Almanac

Astronomy

Aug. 27, 2015 Rise Set
Actual Time
Civil Twilight
Nautical Twilight
Astronomical Twilight
Moon
Length of Visible Light
Length of Day
Tomorrow will be .
, % of the Moon is Illuminated

Today's Extremes

State Highs State Lows

Community

WunderPhotos

Upload Photos

1,850,288 photos uploaded!

WunderBlogs® & News

Nearby

Air Quality

  Air Quality AQ Index Pollutant
Not available.

Snow Depth

Station Depth Elevation

Earthquake Activity

City Distance Mag. Time & Date
Minimum magnitude displayed is 2.5.

Coastal Water Temperatures

Place Temperature

Stations

Nearby Weather Stations

Station Location Temp. Windchill Dew Point Humidity Wind Precip. Elev Updated Type